sensor_id;sensor_type;location;lat;lon;timestamp;temperature;humidity
23335;DHT22;11839;48.598;8.870;2023-05-15T00:01:14;12.30;99.90
23335;DHT22;11839;48.598;8.870;2023-05-15T00:03:41;11.90;99.90
23335;DHT22;11839;48.598;8.870;2023-05-15T00:06:08;12.00;99.90
23335;DHT22;11839;48.598;8.870;2023-05-15T00:08:36;11.90;99.90
23335;DHT22;11839;48.598;8.870;2023-05-15T00:11:03;11.60;99.90
23335;DHT22;11839;48.598;8.870;2023-05-15T00:13:30;11.40;99.90
23335;DHT22;11839;48.598;8.870;2023-05-15T00:15:57;11.30;99.90
23335;DHT22;11839;48.598;8.870;2023-05-15T00:18:24;11.50;99.90
23335;DHT22;11839;48.598;8.870;2023-05-15T00:20:51;11.40;99.90
23335;DHT22;11839;48.598;8.870;2023-05-15T00:23:18;11.80;99.90
23335;DHT22;11839;48.598;8.870;2023-05-15T00:25:46;12.00;99.90
23335;DHT22;11839;48.598;8.870;2023-05-15T00:28:13;12.30;99.90
23335;DHT22;11839;48.598;8.870;2023-05-15T00:30:40;12.40;99.90
23335;DHT22;11839;48.598;8.870;2023-05-15T00:33:07;12.70;99.90
23335;DHT22;11839;48.598;8.870;2023-05-15T00:35:33;12.70;99.90
23335;DHT22;11839;48.598;8.870;2023-05-15T00:38:00;12.80;99.90
23335;DHT22;11839;48.598;8.870;2023-05-15T00:40:27;12.80;99.90
23335;DHT22;11839;48.598;8.870;2023-05-15T00:42:56;12.90;99.90
23335;DHT22;11839;48.598;8.870;2023-05-15T00:45:24;12.90;99.90
23335;DHT22;11839;48.598;8.870;2023-05-15T00:47:53;12.70;99.90
23335;DHT22;11839;48.598;8.870;2023-05-15T00:50:21;12.40;99.90
23335;DHT22;11839;48.598;8.870;2023-05-15T00:52:49;12.10;99.90
23335;DHT22;11839;48.598;8.870;2023-05-15T00:55:16;12.20;99.90
23335;DHT22;11839;48.598;8.870;2023-05-15T00:57:43;12.00;99.90
23335;DHT22;11839;48.598;8.870;2023-05-15T01:00:13;12.20;99.90
23335;DHT22;11839;48.598;8.870;2023-05-15T01:02:43;12.30;99.90
23335;DHT22;11839;48.598;8.870;2023-05-15T01:05:10;12.20;99.90
23335;DHT22;11839;48.598;8.870;2023-05-15T01:07:46;12.00;99.90
23335;DHT22;11839;48.598;8.870;2023-05-15T01:10:15;11.90;99.90
23335;DHT22;11839;48.598;8.870;2023-05-15T01:12:45;11.70;99.90
23335;DHT22;11839;48.598;8.870;2023-05-15T01:15:14;12.00;99.90
23335;DHT22;11839;48.598;8.870;2023-05-15T01:17:41;12.40;99.90
23335;DHT22;11839;48.598;8.870;2023-05-15T01:20:09;12.50;99.90
23335;DHT22;11839;48.598;8.870;2023-05-15T01:22:44;12.80;99.90
23335;DHT22;11839;48.598;8.870;2023-05-15T01:25:42;12.30;99.90
23335;DHT22;11839;48.598;8.870;2023-05-15T01:28:15;12.30;99.90
23335;DHT22;11839;48.598;8.870;2023-05-15T01:30:44;12.40;99.90
23335;DHT22;11839;48.598;8.870;2023-05-15T01:33:17;12.60;99.90
23335;DHT22;11839;48.598;8.870;2023-05-15T01:35:51;12.70;99.90
23335;DHT22;11839;48.598;8.870;2023-05-15T01:38:26;12.80;99.90
23335;DHT22;11839;48.598;8.870;2023-05-15T01:40:58;12.80;99.90
23335;DHT22;11839;48.598;8.870;2023-05-15T01:43:31;13.00;99.90
23335;DHT22;11839;48.598;8.870;2023-05-15T01:45:59;12.80;99.90
23335;DHT22;11839;48.598;8.870;2023-05-15T01:48:27;12.70;99.90
23335;DHT22;11839;48.598;8.870;2023-05-15T01:51:00;12.80;99.90
23335;DHT22;11839;48.598;8.870;2023-05-15T01:53:29;12.90;99.90
23335;DHT22;11839;48.598;8.870;2023-05-15T01:55:58;13.00;99.90
23335;DHT22;11839;48.598;8.870;2023-05-15T01:58:28;12.90;99.90
23335;DHT22;11839;48.598;8.870;2023-05-15T02:00:56;12.90;99.90
23335;DHT22;11839;48.598;8.870;2023-05-15T02:03:24;13.00;99.90
23335;DHT22;11839;48.598;8.870;2023-05-15T02:05:51;13.00;99.90
23335;DHT22;11839;48.598;8.870;2023-05-15T02:08:21;13.10;99.90
23335;DHT22;11839;48.598;8.870;2023-05-15T02:10:50;13.20;99.90
23335;DHT22;11839;48.598;8.870;2023-05-15T02:13:18;13.30;99.90
23335;DHT22;11839;48.598;8.870;2023-05-15T02:15:47;13.20;99.90
23335;DHT22;11839;48.598;8.870;2023-05-15T02:18:14;13.30;99.90
23335;DHT22;11839;48.598;8.870;2023-05-15T02:20:41;13.50;99.90
23335;DHT22;11839;48.598;8.870;2023-05-15T02:23:07;13.40;99.90
23335;DHT22;11839;48.598;8.870;2023-05-15T02:25:42;13.20;99.90
23335;DHT22;11839;48.598;8.870;2023-05-15T02:28:18;13.10;99.90
23335;DHT22;11839;48.598;8.870;2023-05-15T02:30:56;13.10;99.90
23335;DHT22;11839;48.598;8.870;2023-05-15T02:33:28;13.20;99.90
23335;DHT22;11839;48.598;8.870;2023-05-15T02:36:00;13.10;99.90
23335;DHT22;11839;48.598;8.870;2023-05-15T02:38:30;13.30;99.90
23335;DHT22;11839;48.598;8.870;2023-05-15T02:40:59;13.10;99.90
23335;DHT22;11839;48.598;8.870;2023-05-15T02:43:27;13.20;99.90
23335;DHT22;11839;48.598;8.870;2023-05-15T02:45:56;13.00;99.90
23335;DHT22;11839;48.598;8.870;2023-05-15T02:48:23;13.10;99.90
23335;DHT22;11839;48.598;8.870;2023-05-15T02:50:51;13.20;99.90
23335;DHT22;11839;48.598;8.870;2023-05-15T02:53:18;13.40;99.90
23335;DHT22;11839;48.598;8.870;2023-05-15T02:55:46;13.50;99.90
23335;DHT22;11839;48.598;8.870;2023-05-15T02:58:13;13.30;99.90
23335;DHT22;11839;48.598;8.870;2023-05-15T03:00:40;13.30;99.90
23335;DHT22;11839;48.598;8.870;2023-05-15T03:03:08;13.20;99.90
23335;DHT22;11839;48.598;8.870;2023-05-15T03:05:35;13.40;99.90
23335;DHT22;11839;48.598;8.870;2023-05-15T03:08:02;13.10;99.90
23335;DHT22;11839;48.598;8.870;2023-05-15T03:10:29;12.90;99.90
23335;DHT22;11839;48.598;8.870;2023-05-15T03:12:55;12.60;99.90
23335;DHT22;11839;48.598;8.870;2023-05-15T03:15:23;12.60;99.90
23335;DHT22;11839;48.598;8.870;2023-05-15T03:17:50;12.30;99.90
23335;DHT22;11839;48.598;8.870;2023-05-15T03:20:18;12.50;99.90
23335;DHT22;11839;48.598;8.870;2023-05-15T03:22:45;12.40;99.90
23335;DHT22;11839;48.598;8.870;2023-05-15T03:25:12;12.60;99.90
23335;DHT22;11839;48.598;8.870;2023-05-15T03:27:39;12.70;99.90
23335;DHT22;11839;48.598;8.870;2023-05-15T03:30:07;12.70;99.90
23335;DHT22;11839;48.598;8.870;2023-05-15T03:32:34;12.50;99.90
23335;DHT22;11839;48.598;8.870;2023-05-15T03:35:01;12.70;99.90
23335;DHT22;11839;48.598;8.870;2023-05-15T03:37:29;12.80;99.90
23335;DHT22;11839;48.598;8.870;2023-05-15T03:39:56;13.20;99.90
23335;DHT22;11839;48.598;8.870;2023-05-15T03:42:22;13.40;99.90
23335;DHT22;11839;48.598;8.870;2023-05-15T03:44:50;13.30;99.90
23335;DHT22;11839;48.598;8.870;2023-05-15T03:47:17;13.10;99.90
23335;DHT22;11839;48.598;8.870;2023-05-15T03:49:45;12.90;99.90
23335;DHT22;11839;48.598;8.870;2023-05-15T03:52:12;13.00;99.90
23335;DHT22;11839;48.598;8.870;2023-05-15T03:54:42;13.10;99.90
23335;DHT22;11839;48.598;8.870;2023-05-15T03:57:09;13.10;99.90
23335;DHT22;11839;48.598;8.870;2023-05-15T03:59:35;13.10;99.90
23335;DHT22;11839;48.598;8.870;2023-05-15T04:02:02;13.10;99.90
23335;DHT22;11839;48.598;8.870;2023-05-15T04:04:29;13.10;99.90
23335;DHT22;11839;48.598;8.870;2023-05-15T04:06:56;13.20;99.90
23335;DHT22;11839;48.598;8.870;2023-05-15T04:09:23;13.10;99.90
23335;DHT22;11839;48.598;8.870;2023-05-15T04:11:51;13.20;99.90
23335;DHT22;11839;48.598;8.870;2023-05-15T04:14:18;13.30;99.90
23335;DHT22;11839;48.598;8.870;2023-05-15T04:16:45;13.40;99.90
23335;DHT22;11839;48.598;8.870;2023-05-15T04:19:12;13.50;99.90
23335;DHT22;11839;48.598;8.870;2023-05-15T04:21:39;13.40;99.90
23335;DHT22;11839;48.598;8.870;2023-05-15T04:24:06;13.40;99.90
23335;DHT22;11839;48.598;8.870;2023-05-15T04:26:33;13.40;99.90
23335;DHT22;11839;48.598;8.870;2023-05-15T04:29:02;13.30;99.90
23335;DHT22;11839;48.598;8.870;2023-05-15T04:31:29;13.10;99.90
23335;DHT22;11839;48.598;8.870;2023-05-15T04:33:57;13.20;99.90
23335;DHT22;11839;48.598;8.870;2023-05-15T04:36:23;13.30;99.90
23335;DHT22;11839;48.598;8.870;2023-05-15T04:38:50;13.50;99.90
23335;DHT22;11839;48.598;8.870;2023-05-15T04:41:17;13.40;99.90
23335;DHT22;11839;48.598;8.870;2023-05-15T04:43:44;13.10;99.90
23335;DHT22;11839;48.598;8.870;2023-05-15T04:46:12;13.00;99.90
23335;DHT22;11839;48.598;8.870;2023-05-15T04:48:39;13.00;99.90
23335;DHT22;11839;48.598;8.870;2023-05-15T04:51:06;13.20;99.90
23335;DHT22;11839;48.598;8.870;2023-05-15T04:53:33;13.10;99.90
23335;DHT22;11839;48.598;8.870;2023-05-15T04:56:00;13.10;99.90
23335;DHT22;11839;48.598;8.870;2023-05-15T04:58:27;13.00;99.90
23335;DHT22;11839;48.598;8.870;2023-05-15T05:00:53;13.00;99.90
23335;DHT22;11839;48.598;8.870;2023-05-15T05:03:21;13.20;99.90
23335;DHT22;11839;48.598;8.870;2023-05-15T05:05:48;13.40;99.90
23335;DHT22;11839;48.598;8.870;2023-05-15T05:08:15;13.40;99.90
23335;DHT22;11839;48.598;8.870;2023-05-15T05:10:42;13.50;99.90
23335;DHT22;11839;48.598;8.870;2023-05-15T05:13:08;13.50;99.90
23335;DHT22;11839;48.598;8.870;2023-05-15T05:15:35;13.50;99.90
23335;DHT22;11839;48.598;8.870;2023-05-15T05:18:02;13.60;99.90
23335;DHT22;11839;48.598;8.870;2023-05-15T05:20:31;13.30;99.90
23335;DHT22;11839;48.598;8.870;2023-05-15T05:22:58;13.20;99.90
23335;DHT22;11839;48.598;8.870;2023-05-15T05:25:25;13.10;99.90
23335;DHT22;11839;48.598;8.870;2023-05-15T05:27:52;13.40;99.90
23335;DHT22;11839;48.598;8.870;2023-05-15T05:30:18;13.40;99.90
23335;DHT22;11839;48.598;8.870;2023-05-15T05:32:46;13.60;99.90
23335;DHT22;11839;48.598;8.870;2023-05-15T05:35:13;13.40;99.90
23335;DHT22;11839;48.598;8.870;2023-05-15T05:37:41;13.50;99.90
23335;DHT22;11839;48.598;8.870;2023-05-15T05:40:09;13.40;99.90
23335;DHT22;11839;48.598;8.870;2023-05-15T05:42:36;13.40;99.90
23335;DHT22;11839;48.598;8.870;2023-05-15T05:45:03;13.50;99.90
23335;DHT22;11839;48.598;8.870;2023-05-15T05:47:30;13.50;99.90
23335;DHT22;11839;48.598;8.870;2023-05-15T05:49:57;13.40;99.90
23335;DHT22;11839;48.598;8.870;2023-05-15T05:52:23;13.60;99.90
23335;DHT22;11839;48.598;8.870;2023-05-15T05:54:52;13.50;99.90
23335;DHT22;11839;48.598;8.870;2023-05-15T05:57:18;13.70;99.90
23335;DHT22;11839;48.598;8.870;2023-05-15T05:59:45;13.90;99.90
23335;DHT22;11839;48.598;8.870;2023-05-15T06:02:14;14.00;99.90
23335;DHT22;11839;48.598;8.870;2023-05-15T06:04:41;14.20;99.90
23335;DHT22;11839;48.598;8.870;2023-05-15T06:07:07;14.40;99.90
23335;DHT22;11839;48.598;8.870;2023-05-15T06:09:34;14.60;99.90
23335;DHT22;11839;48.598;8.870;2023-05-15T06:12:03;14.80;99.90
23335;DHT22;11839;48.598;8.870;2023-05-15T06:14:32;14.80;99.90
23335;DHT22;11839;48.598;8.870;2023-05-15T06:16:59;14.80;99.90
23335;DHT22;11839;48.598;8.870;2023-05-15T06:19:26;14.80;99.90
23335;DHT22;11839;48.598;8.870;2023-05-15T06:21:53;14.90;99.90
23335;DHT22;11839;48.598;8.870;2023-05-15T06:24:19;15.20;99.90
23335;DHT22;11839;48.598;8.870;2023-05-15T06:26:46;14.90;99.90
23335;DHT22;11839;48.598;8.870;2023-05-15T06:29:14;15.10;99.90
23335;DHT22;11839;48.598;8.870;2023-05-15T06:31:41;15.40;99.90
23335;DHT22;11839;48.598;8.870;2023-05-15T06:34:08;15.30;99.90
23335;DHT22;11839;48.598;8.870;2023-05-15T06:36:35;15.10;99.90
23335;DHT22;11839;48.598;8.870;2023-05-15T06:39:02;15.40;99.90
23335;DHT22;11839;48.598;8.870;2023-05-15T06:41:30;15.50;99.90
23335;DHT22;11839;48.598;8.870;2023-05-15T06:43:57;15.60;99.90
23335;DHT22;11839;48.598;8.870;2023-05-15T06:46:25;15.30;99.90
23335;DHT22;11839;48.598;8.870;2023-05-15T06:48:52;15.10;99.90
23335;DHT22;11839;48.598;8.870;2023-05-15T06:51:19;15.20;99.90
23335;DHT22;11839;48.598;8.870;2023-05-15T06:53:45;15.60;99.90
23335;DHT22;11839;48.598;8.870;2023-05-15T06:56:12;15.80;99.90
23335;DHT22;11839;48.598;8.870;2023-05-15T06:58:39;16.00;99.90
23335;DHT22;11839;48.598;8.870;2023-05-15T07:01:07;16.30;99.90
23335;DHT22;11839;48.598;8.870;2023-05-15T07:03:35;16.50;99.90
23335;DHT22;11839;48.598;8.870;2023-05-15T07:06:03;17.00;99.90
23335;DHT22;11839;48.598;8.870;2023-05-15T07:08:30;17.30;99.90
23335;DHT22;11839;48.598;8.870;2023-05-15T07:10:56;17.30;99.90
23335;DHT22;11839;48.598;8.870;2023-05-15T07:13:23;17.30;99.90
23335;DHT22;11839;48.598;8.870;2023-05-15T07:15:50;17.40;99.90
23335;DHT22;11839;48.598;8.870;2023-05-15T07:18:17;17.20;99.90
23335;DHT22;11839;48.598;8.870;2023-05-15T07:20:45;17.40;99.90
23335;DHT22;11839;48.598;8.870;2023-05-15T07:23:12;17.80;99.90
23335;DHT22;11839;48.598;8.870;2023-05-15T07:25:38;18.00;99.90
23335;DHT22;11839;48.598;8.870;2023-05-15T07:28:05;18.30;99.90
23335;DHT22;11839;48.598;8.870;2023-05-15T07:30:32;18.30;99.90
23335;DHT22;11839;48.598;8.870;2023-05-15T07:32:59;18.50;99.90
23335;DHT22;11839;48.598;8.870;2023-05-15T07:35:25;18.50;99.90
23335;DHT22;11839;48.598;8.870;2023-05-15T07:37:53;18.70;99.90
23335;DHT22;11839;48.598;8.870;2023-05-15T07:40:20;18.70;99.90
23335;DHT22;11839;48.598;8.870;2023-05-15T07:42:47;18.60;99.90
23335;DHT22;11839;48.598;8.870;2023-05-15T07:45:14;19.10;99.90
23335;DHT22;11839;48.598;8.870;2023-05-15T07:47:43;19.60;99.90
23335;DHT22;11839;48.598;8.870;2023-05-15T07:50:10;20.10;99.90
23335;DHT22;11839;48.598;8.870;2023-05-15T07:52:37;20.30;99.90
23335;DHT22;11839;48.598;8.870;2023-05-15T07:55:06;20.10;99.90
23335;DHT22;11839;48.598;8.870;2023-05-15T07:57:33;20.10;99.90
23335;DHT22;11839;48.598;8.870;2023-05-15T08:00:00;20.10;99.90
23335;DHT22;11839;48.598;8.870;2023-05-15T08:02:34;20.50;99.90
23335;DHT22;11839;48.598;8.870;2023-05-15T08:05:01;20.40;99.90
23335;DHT22;11839;48.598;8.870;2023-05-15T08:07:30;20.20;99.90
23335;DHT22;11839;48.598;8.870;2023-05-15T08:09:58;20.90;99.90
23335;DHT22;11839;48.598;8.870;2023-05-15T08:12:26;20.70;99.90
23335;DHT22;11839;48.598;8.870;2023-05-15T08:14:53;20.50;99.90
23335;DHT22;11839;48.598;8.870;2023-05-15T08:17:21;20.40;99.90
23335;DHT22;11839;48.598;8.870;2023-05-15T08:19:48;19.90;99.90
23335;DHT22;11839;48.598;8.870;2023-05-15T08:22:15;20.60;99.90
23335;DHT22;11839;48.598;8.870;2023-05-15T08:24:42;20.50;99.90
23335;DHT22;11839;48.598;8.870;2023-05-15T08:27:09;19.90;99.90
23335;DHT22;11839;48.598;8.870;2023-05-15T08:29:37;19.70;99.90
23335;DHT22;11839;48.598;8.870;2023-05-15T08:32:05;20.40;99.90
23335;DHT22;11839;48.598;8.870;2023-05-15T08:34:32;21.10;99.90
23335;DHT22;11839;48.598;8.870;2023-05-15T08:36:59;20.70;99.90
23335;DHT22;11839;48.598;8.870;2023-05-15T08:39:25;19.90;99.90
23335;DHT22;11839;48.598;8.870;2023-05-15T08:41:55;19.70;99.90
23335;DHT22;11839;48.598;8.870;2023-05-15T08:44:23;19.90;99.90
23335;DHT22;11839;48.598;8.870;2023-05-15T08:46:52;20.40;99.90
23335;DHT22;11839;48.598;8.870;2023-05-15T08:49:24;20.70;99.90
23335;DHT22;11839;48.598;8.870;2023-05-15T08:51:53;20.60;99.90
23335;DHT22;11839;48.598;8.870;2023-05-15T08:54:21;19.80;99.90
23335;DHT22;11839;48.598;8.870;2023-05-15T08:56:48;19.30;99.90
23335;DHT22;11839;48.598;8.870;2023-05-15T08:59:15;19.70;99.90
23335;DHT22;11839;48.598;8.870;2023-05-15T09:01:42;19.90;99.90
23335;DHT22;11839;48.598;8.870;2023-05-15T09:04:10;20.70;99.90
23335;DHT22;11839;48.598;8.870;2023-05-15T09:06:38;20.60;99.30
23335;DHT22;11839;48.598;8.870;2023-05-15T09:09:07;20.30;98.60
23335;DHT22;11839;48.598;8.870;2023-05-15T09:11:40;20.20;99.60
23335;DHT22;11839;48.598;8.870;2023-05-15T09:14:08;20.10;99.60
23335;DHT22;11839;48.598;8.870;2023-05-15T09:16:35;20.40;98.50
23335;DHT22;11839;48.598;8.870;2023-05-15T09:19:02;20.50;97.90
23335;DHT22;11839;48.598;8.870;2023-05-15T09:21:32;20.20;98.80
23335;DHT22;11839;48.598;8.870;2023-05-15T09:24:15;20.40;98.10
23335;DHT22;11839;48.598;8.870;2023-05-15T09:26:42;20.10;98.30
23335;DHT22;11839;48.598;8.870;2023-05-15T09:29:09;20.40;98.40
23335;DHT22;11839;48.598;8.870;2023-05-15T09:31:36;20.90;96.50
23335;DHT22;11839;48.598;8.870;2023-05-15T09:34:03;20.80;96.60
23335;DHT22;11839;48.598;8.870;2023-05-15T09:36:32;20.50;96.20
23335;DHT22;11839;48.598;8.870;2023-05-15T09:39:00;19.90;97.80
23335;DHT22;11839;48.598;8.870;2023-05-15T09:41:27;19.50;99.30
23335;DHT22;11839;48.598;8.870;2023-05-15T09:43:54;19.00;99.80
23335;DHT22;11839;48.598;8.870;2023-05-15T09:46:22;18.70;99.50
23335;DHT22;11839;48.598;8.870;2023-05-15T09:48:52;18.80;99.90
23335;DHT22;11839;48.598;8.870;2023-05-15T09:51:19;18.90;99.90
23335;DHT22;11839;48.598;8.870;2023-05-15T09:53:49;18.90;99.90
23335;DHT22;11839;48.598;8.870;2023-05-15T09:56:17;18.70;99.90
23335;DHT22;11839;48.598;8.870;2023-05-15T09:58:54;18.60;99.90
23335;DHT22;11839;48.598;8.870;2023-05-15T10:01:21;19.30;99.90
23335;DHT22;11839;48.598;8.870;2023-05-15T10:03:56;19.30;99.50
23335;DHT22;11839;48.598;8.870;2023-05-15T10:06:24;19.20;98.80
23335;DHT22;11839;48.598;8.870;2023-05-15T10:08:53;19.10;99.10
23335;DHT22;11839;48.598;8.870;2023-05-15T10:11:20;19.00;98.50
23335;DHT22;11839;48.598;8.870;2023-05-15T10:13:48;19.20;98.40
23335;DHT22;11839;48.598;8.870;2023-05-15T10:16:17;19.00;98.70
23335;DHT22;11839;48.598;8.870;2023-05-15T10:18:46;19.40;97.90
23335;DHT22;11839;48.598;8.870;2023-05-15T10:21:14;19.40;98.00
23335;DHT22;11839;48.598;8.870;2023-05-15T10:23:43;19.60;97.90
23335;DHT22;11839;48.598;8.870;2023-05-15T10:26:17;19.40;98.50
23335;DHT22;11839;48.598;8.870;2023-05-15T10:28:46;19.60;97.20
23335;DHT22;11839;48.598;8.870;2023-05-15T10:31:14;19.90;97.10
23335;DHT22;11839;48.598;8.870;2023-05-15T10:33:42;19.90;95.60
23335;DHT22;11839;48.598;8.870;2023-05-15T10:36:09;20.00;96.10
23335;DHT22;11839;48.598;8.870;2023-05-15T10:38:37;20.00;96.40
23335;DHT22;11839;48.598;8.870;2023-05-15T10:41:06;19.80;96.00
23335;DHT22;11839;48.598;8.870;2023-05-15T10:43:35;19.60;95.40
23335;DHT22;11839;48.598;8.870;2023-05-15T10:46:03;19.60;95.50
23335;DHT22;11839;48.598;8.870;2023-05-15T10:48:32;19.60;96.10
23335;DHT22;11839;48.598;8.870;2023-05-15T10:50:59;19.80;95.90
23335;DHT22;11839;48.598;8.870;2023-05-15T10:53:26;20.20;95.80
23335;DHT22;11839;48.598;8.870;2023-05-15T10:55:53;20.50;94.50
23335;DHT22;11839;48.598;8.870;2023-05-15T10:58:22;20.30;93.90
23335;DHT22;11839;48.598;8.870;2023-05-15T11:00:50;20.80;93.10
23335;DHT22;11839;48.598;8.870;2023-05-15T11:03:34;20.30;93.70
23335;DHT22;11839;48.598;8.870;2023-05-15T11:06:08;20.50;94.00
23335;DHT22;11839;48.598;8.870;2023-05-15T11:08:37;20.80;93.10
23335;DHT22;11839;48.598;8.870;2023-05-15T11:11:05;20.40;93.00
23335;DHT22;11839;48.598;8.870;2023-05-15T11:16:56;20.80;93.10
23335;DHT22;11839;48.598;8.870;2023-05-15T11:19:24;20.40;93.90
23335;DHT22;11839;48.598;8.870;2023-05-15T11:21:57;19.90;98.20
23335;DHT22;11839;48.598;8.870;2023-05-15T11:24:26;20.00;99.90
23335;DHT22;11839;48.598;8.870;2023-05-15T11:26:59;20.10;99.90
23335;DHT22;11839;48.598;8.870;2023-05-15T11:29:26;20.20;99.90
23335;DHT22;11839;48.598;8.870;2023-05-15T11:31:53;19.70;99.90
23335;DHT22;11839;48.598;8.870;2023-05-15T11:34:40;19.40;99.90
23335;DHT22;11839;48.598;8.870;2023-05-15T11:37:11;19.40;99.90
23335;DHT22;11839;48.598;8.870;2023-05-15T11:39:43;19.40;99.90
23335;DHT22;11839;48.598;8.870;2023-05-15T11:42:10;19.10;99.90
23335;DHT22;11839;48.598;8.870;2023-05-15T11:44:38;19.30;99.90
23335;DHT22;11839;48.598;8.870;2023-05-15T11:47:08;19.60;99.90
23335;DHT22;11839;48.598;8.870;2023-05-15T11:49:37;19.70;99.90
23335;DHT22;11839;48.598;8.870;2023-05-15T11:52:05;20.00;99.90
23335;DHT22;11839;48.598;8.870;2023-05-15T11:54:32;20.60;99.90
23335;DHT22;11839;48.598;8.870;2023-05-15T11:56:59;20.70;99.90
23335;DHT22;11839;48.598;8.870;2023-05-15T11:59:26;20.90;99.90
23335;DHT22;11839;48.598;8.870;2023-05-15T12:01:53;21.00;99.90
23335;DHT22;11839;48.598;8.870;2023-05-15T12:04:20;20.60;99.80
23335;DHT22;11839;48.598;8.870;2023-05-15T12:06:48;20.40;99.70
23335;DHT22;11839;48.598;8.870;2023-05-15T12:09:16;20.10;99.00
23335;DHT22;11839;48.598;8.870;2023-05-15T12:11:48;19.90;99.10
23335;DHT22;11839;48.598;8.870;2023-05-15T12:14:16;19.90;99.90
23335;DHT22;11839;48.598;8.870;2023-05-15T12:16:43;20.30;99.90
23335;DHT22;11839;48.598;8.870;2023-05-15T12:19:10;20.40;99.90
23335;DHT22;11839;48.598;8.870;2023-05-15T12:21:36;20.60;99.90
23335;DHT22;11839;48.598;8.870;2023-05-15T12:24:10;20.70;99.50
23335;DHT22;11839;48.598;8.870;2023-05-15T12:26:38;21.20;98.50
23335;DHT22;11839;48.598;8.870;2023-05-15T12:29:05;21.10;99.20
23335;DHT22;11839;48.598;8.870;2023-05-15T12:31:33;20.80;99.30
23335;DHT22;11839;48.598;8.870;2023-05-15T12:34:01;20.50;99.90
23335;DHT22;11839;48.598;8.870;2023-05-15T12:36:28;20.30;99.90
23335;DHT22;11839;48.598;8.870;2023-05-15T12:38:55;19.90;99.90
23335;DHT22;11839;48.598;8.870;2023-05-15T12:41:27;19.60;99.90
23335;DHT22;11839;48.598;8.870;2023-05-15T12:43:54;19.40;99.90
23335;DHT22;11839;48.598;8.870;2023-05-15T12:46:21;19.60;99.90
23335;DHT22;11839;48.598;8.870;2023-05-15T12:48:48;19.90;99.90
23335;DHT22;11839;48.598;8.870;2023-05-15T12:51:16;20.10;99.90
23335;DHT22;11839;48.598;8.870;2023-05-15T12:53:44;20.20;99.90
23335;DHT22;11839;48.598;8.870;2023-05-15T12:56:14;20.40;99.90
23335;DHT22;11839;48.598;8.870;2023-05-15T12:58:43;20.70;99.90
23335;DHT22;11839;48.598;8.870;2023-05-15T13:01:10;20.40;99.90
23335;DHT22;11839;48.598;8.870;2023-05-15T13:03:37;20.00;99.90
23335;DHT22;11839;48.598;8.870;2023-05-15T13:06:04;19.80;99.90
23335;DHT22;11839;48.598;8.870;2023-05-15T13:08:32;19.90;99.90
23335;DHT22;11839;48.598;8.870;2023-05-15T13:11:04;20.00;99.90
23335;DHT22;11839;48.598;8.870;2023-05-15T13:13:45;19.90;99.90
23335;DHT22;11839;48.598;8.870;2023-05-15T13:16:20;19.80;99.90
23335;DHT22;11839;48.598;8.870;2023-05-15T13:18:47;20.00;99.90
23335;DHT22;11839;48.598;8.870;2023-05-15T13:21:13;19.80;99.90
23335;DHT22;11839;48.598;8.870;2023-05-15T13:23:40;19.80;99.90
23335;DHT22;11839;48.598;8.870;2023-05-15T13:26:07;19.70;99.90
23335;DHT22;11839;48.598;8.870;2023-05-15T13:28:34;19.60;99.90
23335;DHT22;11839;48.598;8.870;2023-05-15T13:31:03;19.60;99.90
23335;DHT22;11839;48.598;8.870;2023-05-15T13:33:30;18.90;99.90
23335;DHT22;11839;48.598;8.870;2023-05-15T13:35:58;18.20;99.90
23335;DHT22;11839;48.598;8.870;2023-05-15T13:38:25;17.60;99.90
23335;DHT22;11839;48.598;8.870;2023-05-15T13:40:52;17.40;99.90
23335;DHT22;11839;48.598;8.870;2023-05-15T13:43:19;17.40;99.90
23335;DHT22;11839;48.598;8.870;2023-05-15T13:45:45;17.60;99.90
23335;DHT22;11839;48.598;8.870;2023-05-15T13:48:13;17.40;99.90
23335;DHT22;11839;48.598;8.870;2023-05-15T13:50:40;17.50;99.90
23335;DHT22;11839;48.598;8.870;2023-05-15T13:53:07;17.80;99.90
23335;DHT22;11839;48.598;8.870;2023-05-15T13:55:34;17.90;99.90
23335;DHT22;11839;48.598;8.870;2023-05-15T13:58:01;17.90;99.90
23335;DHT22;11839;48.598;8.870;2023-05-15T14:00:28;18.00;99.90
23335;DHT22;11839;48.598;8.870;2023-05-15T14:02:55;18.20;99.90
23335;DHT22;11839;48.598;8.870;2023-05-15T14:05:23;18.30;99.90
23335;DHT22;11839;48.598;8.870;2023-05-15T14:07:50;18.50;99.90
23335;DHT22;11839;48.598;8.870;2023-05-15T14:10:17;18.70;99.90
23335;DHT22;11839;48.598;8.870;2023-05-15T14:12:44;18.90;99.90
23335;DHT22;11839;48.598;8.870;2023-05-15T14:15:11;18.80;99.90
23335;DHT22;11839;48.598;8.870;2023-05-15T14:17:38;19.20;99.90
23335;DHT22;11839;48.598;8.870;2023-05-15T14:20:06;20.50;99.90
23335;DHT22;11839;48.598;8.870;2023-05-15T14:22:36;21.10;99.90
23335;DHT22;11839;48.598;8.870;2023-05-15T14:25:03;22.60;99.90
23335;DHT22;11839;48.598;8.870;2023-05-15T14:27:31;22.60;99.90
23335;DHT22;11839;48.598;8.870;2023-05-15T14:29:59;24.30;99.70
23335;DHT22;11839;48.598;8.870;2023-05-15T14:32:26;25.60;96.30
23335;DHT22;11839;48.598;8.870;2023-05-15T14:34:53;26.90;94.40
23335;DHT22;11839;48.598;8.870;2023-05-15T14:37:24;28.00;93.00
23335;DHT22;11839;48.598;8.870;2023-05-15T14:39:53;27.50;91.00
23335;DHT22;11839;48.598;8.870;2023-05-15T14:42:20;27.30;90.20
23335;DHT22;11839;48.598;8.870;2023-05-15T14:44:47;27.30;88.80
23335;DHT22;11839;48.598;8.870;2023-05-15T14:47:14;26.90;86.90
23335;DHT22;11839;48.598;8.870;2023-05-15T14:49:42;26.80;88.00
23335;DHT22;11839;48.598;8.870;2023-05-15T14:52:10;27.60;85.60
23335;DHT22;11839;48.598;8.870;2023-05-15T14:54:37;27.60;86.70
23335;DHT22;11839;48.598;8.870;2023-05-15T14:57:06;27.30;86.80
23335;DHT22;11839;48.598;8.870;2023-05-15T14:59:33;27.20;88.10
23335;DHT22;11839;48.598;8.870;2023-05-15T15:02:00;28.20;87.30
23335;DHT22;11839;48.598;8.870;2023-05-15T15:04:26;28.30;87.20
23335;DHT22;11839;48.598;8.870;2023-05-15T15:06:54;28.70;87.20
23335;DHT22;11839;48.598;8.870;2023-05-15T15:09:22;28.50;86.40
23335;DHT22;11839;48.598;8.870;2023-05-15T15:11:49;27.60;87.50
23335;DHT22;11839;48.598;8.870;2023-05-15T15:14:17;26.70;88.00
23335;DHT22;11839;48.598;8.870;2023-05-15T15:16:44;25.60;90.30
23335;DHT22;11839;48.598;8.870;2023-05-15T15:19:11;24.70;91.50
23335;DHT22;11839;48.598;8.870;2023-05-15T15:21:38;24.00;92.70
23335;DHT22;11839;48.598;8.870;2023-05-15T15:24:05;23.10;93.70
23335;DHT22;11839;48.598;8.870;2023-05-15T15:26:32;22.70;92.80
23335;DHT22;11839;48.598;8.870;2023-05-15T15:28:59;22.80;91.90
23335;DHT22;11839;48.598;8.870;2023-05-15T15:31:28;22.70;91.00
23335;DHT22;11839;48.598;8.870;2023-05-15T15:33:56;22.80;88.10
23335;DHT22;11839;48.598;8.870;2023-05-15T15:36:23;23.30;86.80
23335;DHT22;11839;48.598;8.870;2023-05-15T15:38:51;23.20;85.80